createdAt,value
2016-03-21T00:00:18.895Z,1010.72
2016-03-21T00:01:18.960Z,1010.71
2016-03-21T00:02:18.838Z,1010.69
2016-03-21T00:03:18.809Z,1010.7
2016-03-21T00:04:18.797Z,1010.72
2016-03-21T00:05:18.767Z,1010.7
2016-03-21T00:06:18.754Z,1010.73
2016-03-21T00:07:18.711Z,1010.72
2016-03-21T00:08:18.682Z,1010.73
2016-03-21T00:09:18.747Z,1010.73
2016-03-21T00:10:19.063Z,1010.75
2016-03-21T00:11:19.002Z,1010.73
2016-03-21T00:12:18.583Z,1010.73
2016-03-21T00:13:18.571Z,1010.73
2016-03-21T00:14:18.526Z,1010.7
2016-03-21T00:15:18.669Z,1010.71
2016-03-21T00:16:18.485Z,1010.69
2016-03-21T00:17:18.487Z,1010.69
2016-03-21T00:18:18.443Z,1010.75
2016-03-21T00:19:18.509Z,1010.74
2016-03-21T00:20:18.402Z,1010.76
2016-03-21T00:21:18.483Z,1010.74
2016-03-21T00:23:18.457Z,1010.8
2016-03-21T00:24:18.287Z,1010.74
2016-03-21T00:25:18.259Z,1010.7
2016-03-21T00:26:18.230Z,1010.73
2016-03-21T00:27:18.202Z,1010.72
2016-03-21T00:28:18.204Z,1010.69
2016-03-21T00:29:18.161Z,1010.73
2016-03-21T00:30:18.147Z,1010.7
2016-03-21T00:31:18.103Z,1010.67
2016-03-21T00:32:18.075Z,1010.69
2016-03-21T00:33:18.172Z,1010.72
2016-03-21T00:34:18.033Z,1010.71
2016-03-21T00:35:18.020Z,1010.72
2016-03-21T00:36:17.975Z,1010.69
2016-03-21T00:37:18.010Z,1010.7
2016-03-21T00:38:17.935Z,1010.68
2016-03-21T00:39:17.906Z,1010.67
2016-03-21T00:40:17.878Z,1010.68
2016-03-21T00:41:17.849Z,1010.67
2016-03-21T00:42:17.852Z,1010.68
2016-03-21T00:43:17.791Z,1010.66
2016-03-21T00:44:17.779Z,1010.68
2016-03-21T00:45:17.750Z,1010.71
2016-03-21T00:46:17.721Z,1010.63
2016-03-21T00:47:17.724Z,1010.61
2016-03-21T00:48:17.680Z,1010.61
2016-03-21T00:49:17.683Z,1010.63
2016-03-21T00:50:17.654Z,1010.59
2016-03-21T00:51:17.610Z,1010.62
2016-03-21T00:52:17.690Z,1010.59
2016-03-21T00:53:17.725Z,1010.58
2016-03-21T00:54:17.556Z,1010.59
2016-03-21T00:55:17.527Z,1010.56
2016-03-21T00:56:17.734Z,1010.54
2016-03-21T00:57:17.454Z,1010.57
2016-03-21T00:58:17.473Z,1010.56
2016-03-21T00:59:17.398Z,1010.58
2016-03-21T01:00:17.400Z,1010.56
2016-03-21T01:01:17.340Z,1010.54
2016-03-21T01:02:17.983Z,1010.52
2016-03-21T01:03:17.361Z,1010.52
2016-03-21T01:04:17.817Z,1010.52
2016-03-21T01:05:17.242Z,1010.53
2016-03-21T01:06:17.228Z,1010.56
2016-03-21T01:07:17.184Z,1010.53
2016-03-21T01:08:17.172Z,1010.56
2016-03-21T01:09:17.158Z,1010.54
2016-03-21T01:10:17.130Z,1010.54
2016-03-21T01:11:17.117Z,1010.53
2016-03-21T01:12:17.057Z,1010.54
2016-03-21T01:13:17.060Z,1010.5
2016-03-21T01:14:17.016Z,1010.54
2016-03-21T01:15:16.987Z,1010.55
2016-03-21T01:16:16.974Z,1010.58
2016-03-21T01:17:16.946Z,1010.56
2016-03-21T01:18:16.918Z,1010.58
2016-03-21T01:19:16.888Z,1010.57
2016-03-21T01:20:16.876Z,1010.53
2016-03-21T01:21:17.301Z,1010.51
2016-03-21T01:22:16.819Z,1010.54
2016-03-21T01:23:17.009Z,1010.51
2016-03-21T01:24:16.776Z,1010.51
2016-03-21T01:25:16.733Z,1010.48
2016-03-21T01:26:16.704Z,1010.53
2016-03-21T01:27:16.692Z,1010.48
2016-03-21T01:28:16.663Z,1010.48
2016-03-21T01:29:16.634Z,1010.46
2016-03-21T01:30:16.606Z,1010.48
2016-03-21T01:31:16.593Z,1010.47
2016-03-21T01:32:16.565Z,1010.44
2016-03-21T01:33:16.520Z,1010.47
2016-03-21T01:34:16.507Z,1010.44
2016-03-21T01:35:16.542Z,1010.42
2016-03-21T01:36:16.450Z,1010.46
2016-03-21T01:37:16.422Z,1010.46
2016-03-21T01:38:16.800Z,1010.44
2016-03-21T01:39:16.395Z,1010.42
2016-03-21T01:40:16.352Z,1010.4
2016-03-21T01:41:16.339Z,1010.42
2016-03-21T01:42:16.294Z,1010.4
2016-03-21T01:43:16.281Z,1010.43
2016-03-21T01:44:16.253Z,1010.44
2016-03-21T01:45:16.255Z,1010.49
2016-03-21T01:46:16.211Z,1010.42
2016-03-21T01:47:16.214Z,1010.44
2016-03-21T01:48:16.138Z,1010.44
2016-03-21T01:49:16.110Z,1010.43
2016-03-21T01:50:16.097Z,1010.44
2016-03-21T01:51:16.085Z,1010.41
2016-03-21T01:52:16.041Z,1010.47
2016-03-21T01:53:16.013Z,1010.4
2016-03-21T01:54:15.999Z,1010.37
2016-03-21T01:55:15.971Z,1010.4
2016-03-21T01:56:15.942Z,1010.42
2016-03-21T01:57:15.913Z,1010.43
2016-03-21T01:58:15.885Z,1010.42
2016-03-21T01:59:15.872Z,1010.4
2016-03-21T02:00:15.859Z,1010.39
2016-03-21T02:01:15.814Z,1010.39
2016-03-21T02:02:15.802Z,1010.39
2016-03-21T02:03:15.773Z,1010.42
2016-03-21T02:04:15.745Z,1010.41
2016-03-21T02:05:15.715Z,1010.39
2016-03-21T02:06:15.687Z,1010.39
2016-03-21T02:07:15.659Z,1010.43
2016-03-21T02:08:15.645Z,1010.42
2016-03-21T02:09:15.618Z,1010.42
2016-03-21T02:10:15.589Z,1010.42
2016-03-21T02:11:15.560Z,1010.41
2016-03-21T02:12:15.531Z,1010.39
2016-03-21T02:13:15.503Z,1010.41
2016-03-21T02:14:15.490Z,1010.45
2016-03-21T02:15:15.462Z,1010.46
2016-03-21T02:16:15.418Z,1010.45
2016-03-21T02:17:15.405Z,1010.49
2016-03-21T02:18:15.375Z,1010.51
2016-03-21T02:19:15.364Z,1010.48
2016-03-21T02:20:15.506Z,1010.48
2016-03-21T02:21:15.291Z,1010.48
2016-03-21T02:22:15.277Z,1010.54
2016-03-21T02:23:15.249Z,1010.52
2016-03-21T02:24:15.267Z,1010.5
2016-03-21T02:25:15.488Z,1010.49
2016-03-21T02:26:15.179Z,1010.47
2016-03-21T02:27:15.150Z,1010.51
2016-03-21T02:28:15.121Z,1010.47
2016-03-21T02:29:15.093Z,1010.52
2016-03-21T02:30:15.079Z,1010.5
2016-03-21T02:31:15.052Z,1010.49
2016-03-21T02:32:15.023Z,1010.49
2016-03-21T02:33:14.994Z,1010.5
2016-03-21T02:34:14.965Z,1010.49
2016-03-21T02:35:14.984Z,1010.48
2016-03-21T02:36:14.909Z,1010.44
2016-03-21T02:37:14.881Z,1010.4
2016-03-21T02:38:14.852Z,1010.39
2016-03-21T02:39:14.839Z,1010.37
2016-03-21T02:40:14.809Z,1010.37
2016-03-21T02:41:14.782Z,1010.34
2016-03-21T02:42:14.753Z,1010.34
2016-03-21T02:43:14.756Z,1010.33
2016-03-21T02:44:14.727Z,1010.3
2016-03-21T02:45:14.698Z,1010.3
2016-03-21T02:46:14.670Z,1010.28
2016-03-21T02:47:14.641Z,1010.26
2016-03-21T02:48:15.489Z,1010.27
2016-03-21T02:49:14.584Z,1010.29
2016-03-21T02:50:14.572Z,1010.29
2016-03-21T02:51:14.543Z,1010.31
2016-03-21T02:52:14.514Z,1010.33
2016-03-21T02:53:14.470Z,1010.28
2016-03-21T02:54:14.457Z,1010.32
2016-03-21T02:55:14.429Z,1010.31
2016-03-21T02:56:14.399Z,1010.3
2016-03-21T02:57:14.372Z,1010.31
2016-03-21T02:58:14.343Z,1010.31
2016-03-21T02:59:14.315Z,1010.31
2016-03-21T03:00:14.302Z,1010.35
2016-03-21T03:01:14.273Z,1010.34
2016-03-21T03:02:14.244Z,1010.38
2016-03-21T03:03:14.232Z,1010.37
2016-03-21T03:04:14.188Z,1010.39
2016-03-21T03:05:14.174Z,1010.41
2016-03-21T03:06:14.145Z,1010.38
2016-03-21T03:07:14.117Z,1010.38
2016-03-21T03:08:14.088Z,1010.38
2016-03-21T03:09:14.058Z,1010.35
2016-03-21T03:10:14.031Z,1010.39
2016-03-21T03:11:14.002Z,1010.36
2016-03-21T03:12:13.989Z,1010.32
2016-03-21T03:13:13.960Z,1010.32
2016-03-21T03:14:13.947Z,1010.32
2016-03-21T03:15:13.903Z,1010.31
2016-03-21T03:16:13.875Z,1010.35
2016-03-21T03:17:13.862Z,1010.38
2016-03-21T03:18:13.848Z,1010.32
2016-03-21T03:19:13.805Z,1010.34
2016-03-21T03:20:13.791Z,1010.37
2016-03-21T03:21:13.763Z,1010.37
2016-03-21T03:22:13.735Z,1010.34
2016-03-21T03:23:13.706Z,1010.34
2016-03-21T03:24:13.677Z,1010.31
2016-03-21T03:25:13.648Z,1010.3
2016-03-21T03:26:13.621Z,1010.32
2016-03-21T03:27:13.592Z,1010.26
2016-03-21T03:28:13.578Z,1010.29
2016-03-21T03:29:13.565Z,1010.31
2016-03-21T03:30:13.522Z,1010.28
2016-03-21T03:31:13.509Z,1010.33
2016-03-21T03:32:13.481Z,1010.28
2016-03-21T03:33:13.452Z,1010.27
2016-03-21T03:34:13.423Z,1010.28
2016-03-21T03:35:13.411Z,1010.31
2016-03-21T03:36:13.366Z,1010.31
2016-03-21T03:37:13.337Z,1010.29
2016-03-21T03:38:13.325Z,1010.31
2016-03-21T03:39:13.296Z,1010.3
2016-03-21T03:40:13.267Z,1010.35
2016-03-21T03:41:13.238Z,1010.32
2016-03-21T03:42:13.226Z,1010.31
2016-03-21T03:43:13.182Z,1010.28
2016-03-21T03:44:13.169Z,1010.3
2016-03-21T03:45:13.141Z,1010.26
2016-03-21T03:46:13.111Z,1010.32
2016-03-21T03:47:13.083Z,1010.3
2016-03-21T03:48:13.055Z,1010.29
2016-03-21T03:49:13.042Z,1010.32
2016-03-21T03:50:13.029Z,1010.3
2016-03-21T03:51:12.999Z,1010.31
2016-03-21T03:52:12.956Z,1010.33
2016-03-21T03:53:12.927Z,1010.36
2016-03-21T03:54:12.914Z,1010.4
2016-03-21T03:55:12.933Z,1010.35
2016-03-21T03:56:12.857Z,1010.34
2016-03-21T03:57:12.845Z,1010.35
2016-03-21T03:58:12.815Z,1010.34
2016-03-21T03:59:12.803Z,1010.37
2016-03-21T04:00:12.743Z,1010.34
2016-03-21T04:01:12.730Z,1010.36
2016-03-21T04:02:12.764Z,1010.35
2016-03-21T04:03:12.720Z,1010.36
2016-03-21T04:04:12.676Z,1010.35
2016-03-21T04:05:12.631Z,1010.39
2016-03-21T04:06:12.603Z,1010.36
2016-03-21T04:07:12.575Z,1010.36
2016-03-21T04:08:12.545Z,1010.39
2016-03-21T04:09:12.533Z,1010.36
2016-03-21T04:10:13.316Z,1010.36
2016-03-21T04:11:12.539Z,1010.38
2016-03-21T04:12:12.447Z,1010.38
2016-03-21T04:13:12.919Z,1010.38
2016-03-21T04:14:12.390Z,1010.39
2016-03-21T04:15:12.596Z,1010.4
2016-03-21T04:16:12.349Z,1010.38
2016-03-21T04:17:12.319Z,1010.37
2016-03-21T04:18:12.292Z,1010.37
2016-03-21T04:19:12.700Z,1010.37
2016-03-21T04:20:12.249Z,1010.38
2016-03-21T04:21:12.205Z,1010.39
2016-03-21T04:22:12.193Z,1010.37
2016-03-21T04:23:12.165Z,1010.35
2016-03-21T04:24:12.151Z,1010.36
2016-03-21T04:25:12.123Z,1010.35
2016-03-21T04:26:12.204Z,1010.37
2016-03-21T04:27:12.065Z,1010.33
2016-03-21T04:28:12.037Z,1010.39
2016-03-21T04:29:12.149Z,1010.41
2016-03-21T04:30:12.183Z,1010.4
2016-03-21T04:31:12.670Z,1010.37
2016-03-21T04:32:12.000Z,1010.38
2016-03-21T04:33:12.332Z,1010.35
2016-03-21T04:34:11.959Z,1010.34
2016-03-21T04:35:11.853Z,1010.32
2016-03-21T04:36:11.824Z,1010.33
2016-03-21T04:37:11.842Z,1010.31
2016-03-21T04:38:11.783Z,1010.3
2016-03-21T04:39:11.800Z,1010.31
2016-03-21T04:40:11.742Z,1010.31
2016-03-21T04:41:11.728Z,1010.31
2016-03-21T04:42:11.684Z,1010.32
2016-03-21T04:43:11.639Z,1010.33
2016-03-21T04:44:11.627Z,1010.37
2016-03-21T04:45:11.599Z,1010.36
2016-03-21T04:46:11.616Z,1010.38
2016-03-21T04:47:11.666Z,1010.39
2016-03-21T04:48:11.528Z,1010.4
2016-03-21T04:49:11.500Z,1010.41
2016-03-21T04:50:11.471Z,1010.44
2016-03-21T04:51:11.458Z,1010.39
2016-03-21T04:52:11.414Z,1010.41
2016-03-21T04:53:11.401Z,1010.43
2016-03-21T04:54:11.373Z,1010.44
2016-03-21T04:55:11.343Z,1010.47
2016-03-21T04:56:11.315Z,1010.44
2016-03-21T04:57:11.287Z,1010.47
2016-03-21T04:58:11.273Z,1010.48
2016-03-21T04:59:11.245Z,1010.5
2016-03-21T05:00:11.217Z,1010.52
2016-03-21T05:01:11.204Z,1010.51
2016-03-21T05:02:11.175Z,1010.5
2016-03-21T05:03:11.148Z,1010.5
2016-03-21T05:04:11.118Z,1010.52
2016-03-21T05:05:11.105Z,1010.48
2016-03-21T05:06:11.062Z,1010.48
2016-03-21T05:07:11.048Z,1010.54
2016-03-21T05:08:11.004Z,1010.53
2016-03-21T05:09:10.991Z,1010.53
2016-03-21T05:10:10.962Z,1010.53
2016-03-21T05:11:10.934Z,1010.53
2016-03-21T05:12:10.906Z,1010.54
2016-03-21T05:13:10.939Z,1010.56
2016-03-21T05:14:10.864Z,1010.53
2016-03-21T05:15:10.835Z,1010.55
2016-03-21T05:16:10.807Z,1010.59
2016-03-21T05:17:10.777Z,1010.56
2016-03-21T05:18:11.266Z,1010.62
2016-03-21T05:19:10.752Z,1010.59
2016-03-21T05:20:10.707Z,1010.61
2016-03-21T05:21:10.679Z,1010.57
2016-03-21T05:22:10.651Z,1010.66
2016-03-21T05:23:10.763Z,1010.66
2016-03-21T05:24:10.593Z,1010.62
2016-03-21T05:25:10.582Z,1010.67
2016-03-21T05:26:10.552Z,1010.66
2016-03-21T05:27:10.523Z,1010.7
2016-03-21T05:28:10.495Z,1010.64
2016-03-21T05:29:10.482Z,1010.62
2016-03-21T05:30:10.438Z,1010.64
2016-03-21T05:31:10.425Z,1010.65
2016-03-21T05:32:10.412Z,1010.62
2016-03-21T05:33:10.368Z,1010.65
2016-03-21T05:34:10.340Z,1010.63
2016-03-21T05:35:10.326Z,1010.62
2016-03-21T05:36:10.314Z,1010.65
2016-03-21T05:37:10.270Z,1010.64
2016-03-21T05:38:10.334Z,1010.64
2016-03-21T05:39:10.228Z,1010.64
2016-03-21T05:40:10.200Z,1010.66
2016-03-21T05:41:10.170Z,1010.67
2016-03-21T05:42:10.158Z,1010.67
2016-03-21T05:43:10.129Z,1010.66
2016-03-21T05:44:10.101Z,1010.66
2016-03-21T05:45:10.056Z,1010.66
2016-03-21T05:46:10.044Z,1010.65
2016-03-21T05:47:10.015Z,1010.63
2016-03-21T05:48:09.987Z,1010.66
2016-03-21T05:49:09.958Z,1010.64
2016-03-21T05:50:09.944Z,1010.65
2016-03-21T05:51:09.917Z,1010.67
2016-03-21T05:52:09.888Z,1010.66
2016-03-21T05:53:09.860Z,1010.67
2016-03-21T05:54:09.830Z,1010.67
2016-03-21T05:55:09.802Z,1010.66
2016-03-21T05:56:09.790Z,1010.68
2016-03-21T05:57:09.760Z,1010.73
2016-03-21T05:58:09.732Z,1010.67
2016-03-21T05:59:09.719Z,1010.71
2016-03-21T06:00:09.675Z,1010.68
2016-03-21T06:01:09.662Z,1010.73
2016-03-21T06:02:09.648Z,1010.71
2016-03-21T06:03:09.652Z,1010.72
2016-03-21T06:04:09.592Z,1010.73
2016-03-21T06:05:09.564Z,1010.78
2016-03-21T06:06:09.534Z,1010.81
2016-03-21T06:07:09.506Z,1010.77
2016-03-21T06:08:09.478Z,1010.79
2016-03-21T06:09:09.449Z,1010.78
2016-03-21T06:10:09.421Z,1010.79
2016-03-21T06:11:09.392Z,1010.83
2016-03-21T06:12:09.661Z,1010.81
2016-03-21T06:13:09.350Z,1010.81
2016-03-21T06:14:09.369Z,1010.82
2016-03-21T06:15:09.372Z,1010.82
2016-03-21T06:16:09.264Z,1010.83
2016-03-21T06:17:09.252Z,1010.81
2016-03-21T06:18:09.224Z,1010.83
2016-03-21T06:19:09.194Z,1010.83
2016-03-21T06:20:09.182Z,1010.83
2016-03-21T06:21:09.153Z,1010.78
2016-03-21T06:22:09.297Z,1010.81
2016-03-21T06:23:09.112Z,1010.85
2016-03-21T06:24:09.083Z,1010.78
2016-03-21T06:25:09.055Z,1010.74
2016-03-21T06:26:09.027Z,1010.8
2016-03-21T06:27:08.998Z,1010.86
2016-03-21T06:28:08.968Z,1010.79
2016-03-21T06:29:08.941Z,1010.8
2016-03-21T06:30:08.927Z,1010.81
2016-03-21T06:31:08.884Z,1010.85
2016-03-21T06:32:08.855Z,1010.86
2016-03-21T06:33:08.857Z,1010.92
2016-03-21T06:34:08.813Z,1010.89
2016-03-21T06:35:08.784Z,1010.91
2016-03-21T06:36:08.772Z,1010.93
2016-03-21T06:37:08.728Z,1010.9
2016-03-21T06:38:08.715Z,1010.94
2016-03-21T06:39:08.686Z,1010.97
2016-03-21T06:40:08.658Z,1010.97
2016-03-21T06:41:08.629Z,1010.99
2016-03-21T06:42:08.616Z,1010.97
2016-03-21T06:43:08.587Z,1011.04
2016-03-21T06:45:08.530Z,1010.99
2016-03-21T06:46:08.502Z,1010.96
2016-03-21T06:47:08.489Z,1010.97
2016-03-21T06:48:08.461Z,1011.01
2016-03-21T06:49:08.447Z,1011
2016-03-21T06:50:08.419Z,1011.01
2016-03-21T06:51:08.391Z,1010.98
2016-03-21T06:52:08.378Z,1010.96
2016-03-21T06:53:08.333Z,1010.97
2016-03-21T06:54:08.321Z,1010.98
2016-03-21T06:55:08.277Z,1010.99
2016-03-21T06:56:08.247Z,1011
2016-03-21T06:57:08.234Z,1010.96
2016-03-21T06:58:08.222Z,1010.97
2016-03-21T06:59:08.177Z,1010.92
2016-03-21T07:00:08.165Z,1010.97
2016-03-21T07:01:08.151Z,1010.92
2016-03-21T07:02:08.092Z,1010.89
2016-03-21T07:03:08.079Z,1010.92
2016-03-21T07:04:08.065Z,1010.92
2016-03-21T07:05:08.022Z,1010.9
2016-03-21T07:06:08.009Z,1010.9
2016-03-21T07:07:07.972Z,1010.88
2016-03-21T07:08:07.943Z,1010.9
2016-03-21T07:09:07.915Z,1010.82
2016-03-21T07:10:07.903Z,1010.85
2016-03-21T07:11:07.873Z,1010.87
2016-03-21T07:12:07.861Z,1010.89
2016-03-21T07:13:07.832Z,1010.91
2016-03-21T07:14:07.803Z,1010.85
2016-03-21T07:15:07.775Z,1010.88
2016-03-21T07:16:07.746Z,1010.86
2016-03-21T07:17:07.718Z,1010.91
2016-03-21T07:18:07.799Z,1010.9
2016-03-21T07:19:07.692Z,1010.89
2016-03-21T07:20:07.648Z,1010.88
2016-03-21T07:21:07.619Z,1010.91
2016-03-21T07:22:07.606Z,1010.92
2016-03-21T07:23:07.577Z,1010.86
2016-03-21T07:24:07.581Z,1010.88
2016-03-21T07:25:07.521Z,1010.89
2016-03-21T07:26:07.491Z,1010.88
2016-03-21T07:27:07.479Z,1010.87
2016-03-21T07:28:07.622Z,1010.9
2016-03-21T07:29:07.422Z,1010.92
2016-03-21T07:30:07.440Z,1010.94
2016-03-21T07:31:07.366Z,1010.92
2016-03-21T07:32:07.555Z,1010.98
2016-03-21T07:33:07.323Z,1011.02
2016-03-21T07:34:07.279Z,1010.99
2016-03-21T07:35:07.266Z,1010.96
2016-03-21T07:36:07.253Z,1011.01
2016-03-21T07:37:07.209Z,1011.03
2016-03-21T07:38:07.212Z,1011.04
2016-03-21T07:39:07.168Z,1011.03
2016-03-21T07:40:07.154Z,1011.02
2016-03-21T07:41:07.126Z,1011
2016-03-21T07:42:07.082Z,1011.05
2016-03-21T07:43:07.069Z,1011.03
2016-03-21T07:44:07.056Z,1011.04
2016-03-21T07:45:07.020Z,1011.06
2016-03-21T07:46:06.978Z,1011.07
2016-03-21T07:47:06.962Z,1011.05
2016-03-21T07:48:06.919Z,1011.11
2016-03-21T07:49:06.877Z,1011.08
2016-03-21T07:50:06.819Z,1011.09
2016-03-21T07:51:06.782Z,1011.07
2016-03-21T07:52:06.764Z,1011.12
2016-03-21T07:53:06.745Z,1011.09
2016-03-21T07:54:06.697Z,1011.06
2016-03-21T07:55:06.679Z,1011.09
2016-03-21T07:56:06.709Z,1011.15
2016-03-21T07:57:06.616Z,1011.03
2016-03-21T07:58:06.586Z,1011.06
2016-03-21T07:59:06.555Z,1011.07
2016-03-21T08:00:06.540Z,1011.1
2016-03-21T08:01:06.511Z,1011.06
2016-03-21T08:02:06.481Z,1011.05
2016-03-21T08:03:06.452Z,1011.06
2016-03-21T08:04:06.423Z,1011.07
2016-03-21T08:05:06.409Z,1011.11
2016-03-21T08:06:06.489Z,1011.11
2016-03-21T08:07:06.366Z,1011.13
2016-03-21T08:08:06.370Z,1011.14
2016-03-21T08:09:06.310Z,1011.1
2016-03-21T08:10:06.329Z,1011.1
2016-03-21T08:11:06.237Z,1011.11
2016-03-21T08:12:06.271Z,1011.15
2016-03-21T08:13:06.196Z,1011.11
2016-03-21T08:14:06.167Z,1011.16
2016-03-21T08:15:06.139Z,1011.16
2016-03-21T08:16:06.173Z,1011.16
2016-03-21T08:17:06.112Z,1011.15
2016-03-21T08:18:06.100Z,1011.2
2016-03-21T08:19:06.056Z,1011.2
2016-03-21T08:20:06.184Z,1011.25
2016-03-21T08:21:05.998Z,1011.25
2016-03-21T08:22:05.986Z,1011.23
2016-03-21T08:23:05.957Z,1011.29
2016-03-21T08:24:05.912Z,1011.29
2016-03-21T08:25:05.900Z,1011.3
2016-03-21T08:26:05.887Z,1011.25
2016-03-21T08:27:05.843Z,1011.22
2016-03-21T08:28:05.814Z,1011.25
2016-03-21T08:29:05.801Z,1011.28
2016-03-21T08:30:05.803Z,1011.27
2016-03-21T08:31:05.947Z,1011.32
2016-03-21T08:32:05.715Z,1011.29
2016-03-21T08:33:05.703Z,1011.32
2016-03-21T08:34:05.674Z,1011.28
2016-03-21T08:35:05.661Z,1011.3
2016-03-21T08:36:05.633Z,1011.31
2016-03-21T08:37:05.589Z,1011.28
2016-03-21T08:38:05.575Z,1011.33
2016-03-21T08:39:05.546Z,1011.31
2016-03-21T08:40:05.519Z,1011.31
2016-03-21T08:41:05.490Z,1011.34
2016-03-21T08:42:05.477Z,1011.31
2016-03-21T08:43:05.448Z,1011.34
2016-03-21T08:44:05.451Z,1011.32
2016-03-21T08:45:05.391Z,1011.35
2016-03-21T08:46:05.378Z,1011.36
2016-03-21T08:47:05.350Z,1011.37
2016-03-21T08:48:05.321Z,1011.39
2016-03-21T08:49:05.293Z,1011.36
2016-03-21T08:50:05.311Z,1011.36
2016-03-21T08:51:05.298Z,1011.38
2016-03-21T08:52:05.223Z,1011.37
2016-03-21T08:53:05.209Z,1011.36
2016-03-21T08:54:05.165Z,1011.41
2016-03-21T08:55:05.137Z,1011.44
2016-03-21T08:56:05.123Z,1011.43
2016-03-21T08:57:05.096Z,1011.41
2016-03-21T08:58:05.067Z,1011.45
2016-03-21T08:59:05.086Z,1011.49
2016-03-21T09:00:05.009Z,1011.47
2016-03-21T09:01:05.341Z,1011.49
2016-03-21T09:02:04.984Z,1011.52
2016-03-21T09:03:04.939Z,1011.48
2016-03-21T09:04:04.911Z,1011.51
2016-03-21T09:05:04.976Z,1011.47
2016-03-21T09:06:04.885Z,1011.49
2016-03-21T09:07:04.857Z,1011.46
2016-03-21T09:08:04.828Z,1011.44
2016-03-21T09:09:04.784Z,1011.48
2016-03-21T09:10:04.771Z,1011.48
2016-03-21T09:11:04.743Z,1011.51
2016-03-21T09:12:04.730Z,1011.45
2016-03-21T09:13:04.701Z,1011.5
2016-03-21T09:14:04.687Z,1011.51
2016-03-21T09:15:04.635Z,1011.51
2016-03-21T09:16:04.622Z,1011.46
2016-03-21T09:17:04.609Z,1011.49
2016-03-21T09:18:04.564Z,1011.46
2016-03-21T09:19:07.600Z,1011.5
2016-03-21T09:20:04.633Z,1011.44
2016-03-21T09:21:04.916Z,1011.42
2016-03-21T09:22:04.497Z,1011.43
2016-03-21T09:23:04.485Z,1011.41
2016-03-21T09:24:04.877Z,1011.42
2016-03-21T09:25:04.600Z,1011.44
2016-03-21T09:26:04.539Z,1011.42
2016-03-21T09:27:04.371Z,1011.47
2016-03-21T09:28:04.513Z,1011.38
2016-03-21T09:29:04.297Z,1011.44
2016-03-21T09:30:04.285Z,1011.44
2016-03-21T09:31:04.256Z,1011.39
2016-03-21T09:32:04.212Z,1011.42
2016-03-21T09:33:04.402Z,1011.44
2016-03-21T09:34:07.185Z,1011.45
2016-03-21T09:35:04.252Z,1011.43
2016-03-21T09:36:04.129Z,1011.46
2016-03-21T09:37:04.116Z,1011.43
2016-03-21T09:38:04.071Z,1011.47
2016-03-21T09:39:04.043Z,1011.47
2016-03-21T09:40:04.296Z,1011.51
2016-03-21T09:41:04.142Z,1011.47
2016-03-21T09:42:04.145Z,1011.5
2016-03-21T09:43:03.959Z,1011.46
2016-03-21T09:44:03.994Z,1011.45
2016-03-21T09:45:03.903Z,1011.46
2016-03-21T09:46:03.906Z,1011.47
2016-03-21T09:47:03.862Z,1011.48
2016-03-21T09:48:03.848Z,1011.44
2016-03-21T09:49:03.820Z,1011.48
2016-03-21T09:50:03.933Z,1011.52
2016-03-21T09:51:03.763Z,1011.5
2016-03-21T09:52:03.734Z,1011.5
2016-03-21T09:53:03.831Z,1011.48
2016-03-21T09:54:03.881Z,1011.47
2016-03-21T09:55:03.883Z,1011.49
2016-03-21T09:56:03.636Z,1011.53
2016-03-21T09:57:03.607Z,1011.54
2016-03-21T09:58:03.891Z,1011.49
2016-03-21T09:59:03.565Z,1011.54
2016-03-21T10:00:03.538Z,1011.52
2016-03-21T10:01:03.618Z,1011.48
2016-03-21T10:02:03.698Z,1011.51
2016-03-21T10:03:03.576Z,1011.51
2016-03-21T10:04:03.454Z,1011.54
2016-03-21T10:05:03.629Z,1011.48
2016-03-21T10:06:03.396Z,1011.51
2016-03-21T10:07:03.385Z,1011.46
2016-03-21T10:08:03.341Z,1011.5
2016-03-21T10:09:03.312Z,1011.46
2016-03-21T10:10:03.347Z,1011.42
2016-03-21T10:11:03.271Z,1011.47
2016-03-21T10:12:03.352Z,1011.47
2016-03-21T10:13:03.323Z,1011.46
2016-03-21T10:15:03.281Z,1011.46
2016-03-21T10:16:03.362Z,1011.41
2016-03-21T10:17:03.146Z,1011.44
2016-03-21T10:18:03.290Z,1011.4
2016-03-21T10:19:03.261Z,1011.46
2016-03-21T10:20:03.076Z,1011.41
2016-03-21T10:21:03.173Z,1011.43
2016-03-21T10:22:03.004Z,1011.44
2016-03-21T10:23:02.990Z,1011.4
2016-03-21T10:24:02.962Z,1011.39
2016-03-21T10:25:03.137Z,1011.39
2016-03-21T10:26:02.921Z,1011.38
2016-03-21T10:27:02.892Z,1011.41
2016-03-21T10:28:02.879Z,1011.39
2016-03-21T10:29:02.850Z,1011.42
2016-03-21T10:30:02.822Z,1011.43
2016-03-21T10:31:02.808Z,1011.48
2016-03-21T10:32:02.764Z,1011.44
2016-03-21T10:33:02.752Z,1011.45
2016-03-21T10:34:02.738Z,1011.45
2016-03-21T10:35:02.711Z,1011.47
2016-03-21T10:36:02.697Z,1011.44
2016-03-21T10:37:02.638Z,1011.41
2016-03-21T10:38:02.641Z,1011.43
2016-03-21T10:39:02.658Z,1011.46
2016-03-21T10:40:02.583Z,1011.39
2016-03-21T10:41:02.555Z,1011.5
2016-03-21T10:42:02.542Z,1011.47
2016-03-21T10:43:02.560Z,1011.52
2016-03-21T10:44:02.484Z,1011.57
2016-03-21T10:45:02.534Z,1011.65
2016-03-21T10:46:02.443Z,1011.75
2016-03-21T10:47:02.446Z,1011.75
2016-03-21T10:48:02.527Z,1011.76
2016-03-21T10:49:02.545Z,1011.75
2016-03-21T10:50:02.360Z,1011.69
2016-03-21T10:51:02.362Z,1011.72
2016-03-21T10:52:02.304Z,1011.72
2016-03-21T10:53:02.290Z,1011.67
2016-03-21T10:54:02.245Z,1011.64
2016-03-21T10:55:02.279Z,1011.63
2016-03-21T10:56:02.236Z,1011.6
2016-03-21T10:57:02.206Z,1011.58
2016-03-21T10:58:02.195Z,1011.57
2016-03-21T10:59:02.134Z,1011.54
2016-03-21T11:00:02.106Z,1011.56
2016-03-21T11:01:02.077Z,1011.56
2016-03-21T11:02:02.064Z,1011.53
2016-03-21T11:03:02.036Z,1011.56
2016-03-21T11:04:02.053Z,1011.52
2016-03-21T11:05:01.994Z,1011.52
2016-03-21T11:06:01.981Z,1011.53
2016-03-21T11:08:01.916Z,1011.51
2016-03-21T11:09:01.872Z,1011.52
2016-03-21T11:10:01.875Z,1011.51
2016-03-21T11:11:01.831Z,1011.48
2016-03-21T11:12:01.850Z,1011.52
2016-03-21T11:13:01.914Z,1011.47
2016-03-21T11:14:01.761Z,1011.43
2016-03-21T11:15:01.732Z,1011.44
2016-03-21T11:16:01.719Z,1011.49
2016-03-21T11:17:01.707Z,1011.44
2016-03-21T11:18:01.724Z,1011.43
2016-03-21T11:19:01.695Z,1011.41
2016-03-21T11:20:01.636Z,1011.4
2016-03-21T11:21:01.592Z,1011.41
2016-03-21T11:22:01.595Z,1011.41
2016-03-21T11:23:01.551Z,1011.41
2016-03-21T11:24:01.537Z,1011.39
2016-03-21T11:25:01.509Z,1011.4
2016-03-21T11:26:01.465Z,1011.38
2016-03-21T11:27:01.452Z,1011.39
2016-03-21T11:28:01.423Z,1011.38
2016-03-21T11:29:01.628Z,1011.39
2016-03-21T11:30:01.382Z,1011.36
2016-03-21T11:31:01.419Z,1011.33
2016-03-21T11:32:01.354Z,1011.33
2016-03-21T11:33:01.701Z,1011.34
2016-03-21T11:34:01.293Z,1011.35
2016-03-21T11:35:01.274Z,1011.31
2016-03-21T11:36:01.245Z,1011.34
2016-03-21T11:37:01.655Z,1011.31
2016-03-21T11:38:01.188Z,1011.23
2016-03-21T11:39:01.207Z,1011.17
2016-03-21T11:40:01.147Z,1011.21
2016-03-21T11:41:01.837Z,1011.18
2016-03-21T11:42:01.089Z,1011.18
2016-03-21T11:43:01.827Z,1011.19
2016-03-21T11:44:01.033Z,1011.13
2016-03-21T11:45:01.114Z,1011.17
2016-03-21T11:46:00.991Z,1011.2
2016-03-21T11:47:00.978Z,1011.22
2016-03-21T11:48:01.575Z,1011.15
2016-03-21T11:49:00.921Z,1011.16
2016-03-21T11:50:00.908Z,1011.2
2016-03-21T11:51:00.927Z,1011.18
2016-03-21T11:52:00.850Z,1011.17
2016-03-21T11:53:00.822Z,1011.18
2016-03-21T11:54:00.810Z,1011.16
2016-03-21T11:55:00.780Z,1011.15
2016-03-21T11:56:00.768Z,1011.15
2016-03-21T11:57:00.739Z,1011.16
2016-03-21T11:58:00.774Z,1011.16
2016-03-21T11:59:00.698Z,1011.12
2016-03-21T12:00:01.154Z,1011.15
2016-03-21T12:01:00.657Z,1011.11
2016-03-21T12:02:00.612Z,1011.09
2016-03-21T12:03:00.647Z,1011.09
2016-03-21T12:04:00.571Z,1011.11
2016-03-21T12:05:00.557Z,1011.09
2016-03-21T12:06:00.513Z,1011.11
2016-03-21T12:07:00.505Z,1011.07
2016-03-21T12:08:00.725Z,1011.06
2016-03-21T12:09:00.495Z,1011.09
2016-03-21T12:10:00.466Z,1011.07
2016-03-21T12:11:00.422Z,1011.05
2016-03-21T12:12:00.455Z,1011.1